Terminal Aerodrome Forecast
Issued by NWS Tulsa, OK

Home | Current Version | Previous Version | Text Only | Print | Product List | Glossary On
Versions: 1 2 3 4 5 6 7 8 9 10 11 12 13 14 15 16 17
000
FTUS44 KTSA 220904 AAB
TAFTUL
TAF AMD
KTUL 220904Z 2209/2306 34010KT P6SM BKN012
     FM221200 35010KT P6SM SCT015 BKN080
     FM221500 33008KT P6SM BKN250
     FM221800 34011KT P6SM FEW250
     FM230100 VRB03KT P6SM SKC=

USA.gov is the U.S. government's official web portal to all federal, state and local government web resources and services.